createdAt,value
2023-07-19T00:02:21.472Z,6.35
2023-07-19T00:04:45.290Z,6.20
2023-07-19T00:07:09.073Z,5.50
2023-07-19T00:09:34.148Z,6.00
2023-07-19T00:11:58.002Z,6.00
2023-07-19T00:14:21.748Z,6.03
2023-07-19T00:16:45.566Z,6.10
2023-07-19T00:19:20.162Z,5.30
2023-07-19T00:21:45.010Z,5.68
2023-07-19T00:24:08.694Z,5.55
2023-07-19T00:26:33.833Z,5.55
2023-07-19T00:28:57.606Z,5.47
2023-07-19T00:31:21.648Z,6.20
2023-07-19T00:33:47.596Z,6.28
2023-07-19T00:36:12.341Z,6.30
2023-07-19T00:38:36.055Z,6.00
2023-07-19T00:41:00.031Z,6.40
2023-07-19T00:43:25.151Z,5.93
2023-07-19T00:45:56.596Z,5.68
2023-07-19T00:48:21.565Z,6.20
2023-07-19T00:50:46.724Z,5.80
2023-07-19T00:53:13.383Z,5.60
2023-07-19T00:55:37.249Z,5.45
2023-07-19T00:58:01.238Z,5.72
2023-07-19T01:00:27.361Z,6.47
2023-07-19T01:02:51.319Z,6.07
2023-07-19T01:05:15.410Z,6.40
2023-07-19T01:07:39.756Z,6.10
2023-07-19T01:10:03.644Z,6.75
2023-07-19T01:12:27.476Z,6.40
2023-07-19T01:14:51.205Z,6.05
2023-07-19T01:17:16.300Z,5.93
2023-07-19T01:19:40.403Z,7.15
2023-07-19T01:22:04.183Z,6.82
2023-07-19T01:24:29.680Z,7.07
2023-07-19T01:26:53.371Z,7.25
2023-07-19T01:29:17.144Z,6.70
2023-07-19T01:31:41.146Z,7.18
2023-07-19T01:34:05.032Z,6.35
2023-07-19T01:36:28.852Z,6.97
2023-07-19T01:38:52.718Z,6.53
2023-07-19T01:41:17.933Z,7.07
2023-07-19T01:43:41.805Z,6.60
2023-07-19T01:46:07.011Z,6.25
2023-07-19T01:48:31.472Z,6.72
2023-07-19T01:50:56.494Z,6.03
2023-07-19T01:53:20.358Z,6.80
2023-07-19T01:55:44.543Z,6.45
2023-07-19T01:58:10.970Z,7.10
2023-07-19T02:00:35.605Z,7.13
2023-07-19T02:02:59.391Z,6.93
2023-07-19T02:05:23.168Z,7.10
2023-07-19T02:07:47.250Z,6.60
2023-07-19T02:10:12.036Z,6.72
2023-07-19T02:12:35.759Z,6.25
2023-07-19T02:15:01.305Z,6.60
2023-07-19T02:17:25.383Z,7.07
2023-07-19T02:19:49.179Z,5.95
2023-07-19T02:22:13.416Z,7.10
2023-07-19T02:24:37.225Z,6.43
2023-07-19T02:27:01.026Z,7.05
2023-07-19T02:29:24.872Z,6.50
2023-07-19T02:31:50.138Z,6.47
2023-07-19T02:34:15.265Z,6.53
2023-07-19T02:36:40.531Z,7.03
2023-07-19T02:39:05.675Z,6.70
2023-07-19T02:41:29.792Z,6.60
2023-07-19T02:43:53.483Z,6.53
2023-07-19T02:46:17.379Z,6.55
2023-07-19T02:48:42.597Z,6.40
2023-07-19T02:51:06.461Z,6.57
2023-07-19T02:53:30.330Z,6.40
2023-07-19T02:55:54.243Z,6.70
2023-07-19T02:58:18.056Z,7.13
2023-07-19T03:00:42.656Z,6.93
2023-07-19T03:03:06.469Z,7.03
2023-07-19T03:05:31.742Z,7.05
2023-07-19T03:07:55.476Z,7.20
2023-07-19T03:10:19.560Z,7.65
2023-07-19T03:12:43.352Z,7.10
2023-07-19T03:15:08.794Z,8.43
2023-07-19T03:17:32.605Z,8.50
2023-07-19T03:19:56.553Z,9.38
2023-07-19T03:22:21.707Z,7.32
2023-07-19T03:24:45.539Z,7.97
2023-07-19T03:27:09.609Z,7.15
2023-07-19T03:29:33.424Z,7.35
2023-07-19T03:31:57.149Z,7.88
2023-07-19T03:34:20.992Z,7.65
2023-07-19T03:36:44.867Z,7.47
2023-07-19T03:39:10.248Z,7.50
2023-07-19T03:41:34.295Z,7.53
2023-07-19T03:43:58.120Z,7.57
2023-07-19T03:46:23.165Z,7.75
2023-07-19T03:48:47.079Z,7.13
2023-07-19T03:51:10.941Z,7.78
2023-07-19T03:53:34.857Z,7.20
2023-07-19T03:56:02.166Z,7.32
2023-07-19T03:58:26.409Z,7.05
2023-07-19T04:00:50.304Z,7.63
2023-07-19T04:03:14.324Z,7.95
2023-07-19T04:05:38.024Z,6.95
2023-07-19T04:08:02.719Z,7.45
2023-07-19T04:10:27.979Z,7.32
2023-07-19T04:12:55.272Z,7.95
2023-07-19T04:15:19.231Z,6.63
2023-07-19T04:17:42.993Z,7.70
2023-07-19T04:20:09.537Z,7.47
2023-07-19T04:22:33.424Z,8.05
2023-07-19T04:24:57.283Z,7.40
2023-07-19T04:27:21.092Z,7.75
2023-07-19T04:29:47.126Z,7.30
2023-07-19T04:32:11.514Z,6.90
2023-07-19T04:34:35.288Z,6.75
2023-07-19T04:36:59.662Z,6.32
2023-07-19T04:39:23.684Z,7.35
2023-07-19T04:41:47.968Z,6.75
2023-07-19T04:44:14.313Z,7.18
2023-07-19T04:46:39.550Z,6.32
2023-07-19T04:49:03.381Z,7.13
2023-07-19T04:51:27.797Z,6.53
2023-07-19T04:53:51.661Z,6.50
2023-07-19T04:56:15.713Z,7.00
2023-07-19T04:58:40.981Z,6.32
2023-07-19T05:01:06.719Z,6.75
2023-07-19T05:03:32.531Z,6.25
2023-07-19T05:05:57.356Z,6.10
2023-07-19T05:08:22.861Z,6.55
2023-07-19T05:10:46.664Z,6.93
2023-07-19T05:13:10.505Z,6.63
2023-07-19T05:15:36.039Z,6.15
2023-07-19T05:18:02.226Z,6.00
2023-07-19T05:20:29.144Z,6.00
2023-07-19T05:22:54.344Z,6.57
2023-07-19T05:25:18.267Z,6.20
2023-07-19T05:27:42.222Z,5.65
2023-07-19T05:30:07.208Z,6.15
2023-07-19T05:32:31.040Z,5.63
2023-07-19T05:34:54.854Z,5.32
2023-07-19T05:37:20.084Z,6.18
2023-07-19T05:39:43.869Z,5.72
2023-07-19T05:42:08.186Z,5.55
2023-07-19T05:44:31.986Z,5.25
2023-07-19T05:46:55.966Z,5.13
2023-07-19T05:49:19.871Z,5.72
2023-07-19T05:51:43.729Z,6.30
2023-07-19T05:54:09.088Z,5.75
2023-07-19T05:56:32.984Z,6.03
2023-07-19T05:58:56.747Z,5.65
2023-07-19T06:01:22.077Z,5.60
2023-07-19T06:03:48.197Z,5.15
2023-07-19T06:06:13.362Z,6.00
2023-07-19T06:08:37.281Z,5.72
2023-07-19T06:11:02.893Z,5.75
2023-07-19T06:13:27.019Z,5.72
2023-07-19T06:15:51.049Z,5.97
2023-07-19T06:18:15.589Z,5.60
2023-07-19T06:20:39.389Z,6.00
2023-07-19T06:23:03.766Z,5.90
2023-07-19T06:25:27.772Z,5.93
2023-07-19T06:27:52.900Z,6.00
2023-07-19T06:30:16.789Z,6.80
2023-07-19T06:32:40.786Z,6.43
2023-07-19T06:35:04.923Z,5.55
2023-07-19T06:37:28.654Z,5.95
2023-07-19T06:39:52.480Z,5.60
2023-07-19T06:42:16.251Z,5.75
2023-07-19T06:44:41.591Z,6.28
2023-07-19T06:47:06.647Z,6.22
2023-07-19T06:49:30.616Z,6.40
2023-07-19T06:51:54.407Z,5.63
2023-07-19T06:54:18.180Z,5.38
2023-07-19T06:56:42.016Z,5.32
2023-07-19T06:59:05.970Z,5.68
2023-07-19T07:01:31.198Z,5.97
2023-07-19T07:03:55.155Z,5.80
2023-07-19T07:06:19.135Z,5.80
2023-07-19T07:08:43.017Z,6.22
2023-07-19T07:11:06.826Z,5.43
2023-07-19T07:13:30.722Z,5.63
2023-07-19T07:15:54.546Z,5.50
2023-07-19T07:18:19.910Z,5.75
2023-07-19T07:20:43.649Z,5.78
2023-07-19T07:23:07.588Z,5.75
2023-07-19T07:25:31.873Z,5.60
2023-07-19T07:27:55.678Z,5.70
2023-07-19T07:30:20.799Z,5.40
2023-07-19T07:32:45.544Z,5.82
2023-07-19T07:35:10.824Z,6.45
2023-07-19T07:37:35.089Z,5.60
2023-07-19T07:39:58.974Z,5.90
2023-07-19T07:42:24.987Z,5.68
2023-07-19T07:44:48.992Z,5.97
2023-07-19T07:47:12.838Z,5.65
2023-07-19T07:49:36.554Z,6.22
2023-07-19T07:52:02.026Z,6.07
2023-07-19T07:54:25.856Z,6.28
2023-07-19T07:56:49.672Z,6.15
2023-07-19T07:59:13.538Z,6.20
2023-07-19T08:01:37.444Z,6.15
2023-07-19T08:04:01.534Z,5.80
2023-07-19T08:06:25.557Z,6.13
2023-07-19T08:08:50.704Z,6.15
2023-07-19T08:11:14.631Z,6.75
2023-07-19T08:13:38.402Z,6.38
2023-07-19T08:16:02.349Z,5.97
2023-07-19T08:18:26.189Z,5.72
2023-07-19T08:20:52.092Z,5.35
2023-07-19T08:23:15.892Z,5.90
2023-07-19T08:25:43.029Z,6.20
2023-07-19T08:28:06.881Z,5.50
2023-07-19T08:30:33.236Z,6.72
2023-07-19T08:32:57.900Z,6.57
2023-07-19T08:35:22.021Z,6.53
2023-07-19T08:37:46.689Z,6.78
2023-07-19T08:40:11.865Z,7.65
2023-07-19T08:42:37.284Z,7.13
2023-07-19T08:45:01.318Z,6.90
2023-07-19T08:47:25.523Z,7.13
2023-07-19T08:49:51.033Z,6.68
2023-07-19T08:52:15.779Z,7.10
2023-07-19T08:54:39.586Z,6.85
2023-07-19T08:57:06.079Z,7.35
2023-07-19T08:59:31.351Z,7.22
2023-07-19T09:01:55.244Z,7.53
2023-07-19T09:04:19.437Z,7.50
2023-07-19T09:06:44.896Z,6.85
2023-07-19T09:09:11.661Z,7.40
2023-07-19T09:11:35.411Z,6.85
2023-07-19T09:14:01.142Z,6.57
2023-07-19T09:16:30.508Z,7.28
2023-07-19T09:18:54.424Z,7.72
2023-07-19T09:21:19.605Z,6.68
2023-07-19T09:23:44.776Z,8.00
2023-07-19T09:26:08.839Z,7.25
2023-07-19T09:28:34.756Z,7.35
2023-07-19T09:31:11.576Z,7.43
2023-07-19T09:33:47.099Z,6.60
2023-07-19T09:36:10.910Z,7.07
2023-07-19T09:38:34.782Z,6.97
2023-07-19T09:40:58.594Z,6.97
2023-07-19T09:43:23.383Z,7.63
2023-07-19T09:45:49.412Z,7.13
2023-07-19T09:48:13.805Z,6.55
2023-07-19T09:50:41.811Z,7.30
2023-07-19T09:53:06.617Z,7.07
2023-07-19T09:55:33.368Z,6.75
2023-07-19T09:57:59.287Z,6.65
2023-07-19T10:00:23.539Z,7.05
2023-07-19T10:02:47.882Z,7.00
2023-07-19T10:05:12.664Z,6.70
2023-07-19T10:07:50.594Z,6.43
2023-07-19T10:12:40.960Z,6.43
2023-07-19T10:15:07.009Z,6.90
2023-07-19T10:17:32.268Z,6.20
2023-07-19T10:20:11.993Z,5.68
2023-07-19T10:22:51.511Z,6.93
2023-07-19T10:25:17.778Z,6.05
2023-07-19T10:27:41.591Z,6.78
2023-07-19T10:30:07.678Z,6.40
2023-07-19T10:32:31.557Z,6.80
2023-07-19T10:34:56.104Z,6.53
2023-07-19T10:37:19.926Z,6.32
2023-07-19T10:39:45.234Z,6.28
2023-07-19T10:42:09.396Z,7.35
2023-07-19T10:44:33.148Z,7.32
2023-07-19T10:46:58.154Z,7.20
2023-07-19T10:49:24.143Z,6.65
2023-07-19T10:51:55.286Z,5.90
2023-07-19T10:54:20.461Z,6.72
2023-07-19T10:56:49.654Z,5.45
2023-07-19T10:59:15.326Z,6.82
2023-07-19T11:01:39.198Z,6.22
2023-07-19T11:04:04.817Z,6.45
2023-07-19T11:06:28.782Z,6.28
2023-07-19T11:08:52.633Z,6.68
2023-07-19T11:11:17.195Z,6.47
2023-07-19T11:13:42.561Z,6.07
2023-07-19T11:16:07.394Z,6.28
2023-07-19T11:18:32.672Z,6.00
2023-07-19T11:20:58.409Z,6.88
2023-07-19T11:23:22.404Z,6.72
2023-07-19T11:25:46.349Z,5.72
2023-07-19T11:28:10.479Z,6.47
2023-07-19T11:30:43.128Z,7.40
2023-07-19T11:33:07.967Z,6.68
2023-07-19T11:35:31.866Z,7.38
2023-07-19T11:37:55.710Z,7.68
2023-07-19T11:40:20.218Z,8.75
2023-07-19T11:42:46.186Z,7.32
2023-07-19T11:45:11.523Z,6.82
2023-07-19T11:47:36.721Z,6.72
2023-07-19T11:50:00.663Z,6.55
2023-07-19T11:52:24.738Z,6.47
2023-07-19T11:54:48.494Z,6.50
2023-07-19T11:57:12.622Z,6.68
2023-07-19T11:59:36.370Z,6.43
2023-07-19T12:02:01.120Z,6.75
2023-07-19T12:04:26.403Z,6.47
2023-07-19T12:06:50.367Z,6.22
2023-07-19T12:09:14.307Z,7.05
2023-07-19T12:11:38.325Z,9.32
2023-07-19T12:14:02.582Z,7.95
2023-07-19T12:16:27.022Z,7.07
2023-07-19T12:18:51.462Z,6.70
2023-07-19T12:21:17.144Z,6.80
2023-07-19T12:23:41.756Z,6.88
2023-07-19T12:26:06.310Z,6.97
2023-07-19T12:28:30.116Z,6.90
2023-07-19T12:30:53.955Z,6.40
2023-07-19T12:33:17.738Z,5.68
2023-07-19T12:35:41.861Z,7.18
2023-07-19T12:38:07.023Z,6.68
2023-07-19T12:40:31.112Z,6.80
2023-07-19T12:42:54.933Z,7.28
2023-07-19T12:45:19.161Z,7.20
2023-07-19T12:47:43.100Z,6.32
2023-07-19T12:50:08.305Z,6.25
2023-07-19T12:52:42.101Z,6.32
2023-07-19T12:55:15.791Z,6.05
2023-07-19T12:57:39.892Z,7.07
2023-07-19T13:00:05.942Z,6.30
2023-07-19T13:02:30.024Z,6.60
2023-07-19T13:04:54.131Z,5.53
2023-07-19T13:07:17.885Z,5.68
2023-07-19T13:09:41.854Z,6.25
2023-07-19T13:12:08.130Z,6.60
2023-07-19T13:14:32.065Z,6.07
2023-07-19T13:17:06.580Z,6.10
2023-07-19T13:19:39.786Z,6.07
2023-07-19T13:22:03.554Z,5.75
2023-07-19T13:24:27.474Z,7.03
2023-07-19T13:26:51.500Z,5.63
2023-07-19T13:29:16.905Z,6.00
2023-07-19T13:31:41.407Z,6.07
2023-07-19T13:34:05.748Z,6.45
2023-07-19T13:36:53.360Z,6.10
2023-07-19T13:39:16.279Z,6.20
2023-07-19T13:41:40.158Z,5.70
2023-07-19T13:44:03.966Z,5.47
2023-07-19T13:46:29.592Z,5.80
2023-07-19T13:48:53.424Z,6.13
2023-07-19T13:51:17.444Z,5.63
2023-07-19T13:53:43.012Z,6.40
2023-07-19T13:56:07.569Z,6.13
2023-07-19T13:58:31.501Z,6.43
2023-07-19T14:00:55.646Z,5.80
2023-07-19T14:03:21.047Z,6.00
2023-07-19T14:05:45.115Z,6.10
2023-07-19T14:08:10.079Z,5.47
2023-07-19T14:10:34.097Z,6.07
2023-07-19T14:12:59.938Z,5.93
2023-07-19T14:15:24.387Z,5.55
2023-07-19T14:17:48.244Z,6.40
2023-07-19T14:20:15.409Z,5.82
2023-07-19T14:22:39.244Z,6.03
2023-07-19T14:25:03.192Z,6.18
2023-07-19T14:27:27.116Z,5.57
2023-07-19T14:29:53.293Z,6.72
2023-07-19T14:32:17.215Z,5.90
2023-07-19T14:34:47.025Z,5.85
2023-07-19T14:37:13.196Z,5.63
2023-07-19T14:39:36.989Z,6.03
2023-07-19T14:42:01.696Z,5.68
2023-07-19T14:44:26.719Z,5.82
2023-07-19T14:46:50.784Z,5.82
2023-07-19T14:49:14.573Z,6.72
2023-07-19T14:51:38.424Z,5.97
2023-07-19T14:54:04.870Z,6.10
2023-07-19T14:56:28.645Z,6.63
2023-07-19T14:58:52.430Z,5.60
2023-07-19T15:01:16.222Z,5.55
2023-07-19T15:03:40.021Z,5.45
2023-07-19T15:06:04.174Z,5.25
2023-07-19T15:08:28.299Z,6.00
2023-07-19T15:10:53.494Z,6.65
2023-07-19T15:13:20.582Z,6.28
2023-07-19T15:15:46.043Z,5.95
2023-07-19T15:18:10.176Z,5.93
2023-07-19T15:20:35.568Z,5.40
2023-07-19T15:22:59.402Z,5.75
2023-07-19T15:25:24.445Z,5.95
2023-07-19T15:27:49.621Z,5.88
2023-07-19T15:30:14.124Z,5.53
2023-07-19T15:32:39.422Z,5.80
2023-07-19T15:35:04.757Z,5.40
2023-07-19T15:37:28.545Z,5.80
2023-07-19T15:39:52.330Z,6.05
2023-07-19T15:42:16.097Z,6.05
2023-07-19T15:44:41.914Z,5.78
2023-07-19T15:47:06.139Z,5.38
2023-07-19T15:49:30.066Z,6.43
2023-07-19T15:51:54.084Z,5.43
2023-07-19T15:54:18.104Z,6.28
2023-07-19T15:56:41.929Z,6.30
2023-07-19T15:59:05.840Z,6.15
2023-07-19T16:01:31.190Z,6.22
2023-07-19T16:03:55.032Z,5.90
2023-07-19T16:06:18.852Z,5.72
2023-07-19T16:08:42.699Z,6.10
2023-07-19T16:11:06.645Z,7.15
2023-07-19T16:13:30.448Z,5.53
2023-07-19T16:15:54.304Z,6.10
2023-07-19T16:18:19.528Z,5.82
2023-07-19T16:20:44.544Z,5.82
2023-07-19T16:23:08.470Z,5.90
2023-07-19T16:25:32.615Z,5.65
2023-07-19T16:27:56.568Z,6.03
2023-07-19T16:30:20.455Z,6.75
2023-07-19T16:32:44.238Z,6.68
2023-07-19T16:35:10.047Z,5.80
2023-07-19T16:37:34.011Z,5.85
2023-07-19T16:39:57.783Z,6.28
2023-07-19T16:42:21.621Z,6.10
2023-07-19T16:44:45.524Z,5.57
2023-07-19T16:47:09.871Z,6.35
2023-07-19T16:49:33.583Z,6.80
2023-07-19T16:51:59.362Z,6.68
2023-07-19T16:54:23.228Z,6.22
2023-07-19T16:56:47.082Z,6.07
2023-07-19T16:59:10.827Z,5.72
2023-07-19T17:01:34.860Z,5.80
2023-07-19T17:03:58.873Z,6.15
2023-07-19T17:06:22.905Z,5.70
2023-07-19T17:08:47.981Z,6.53
2023-07-19T17:11:13.911Z,5.68
2023-07-19T17:13:39.970Z,6.60
2023-07-19T17:16:03.839Z,6.70
2023-07-19T17:18:27.661Z,6.57
2023-07-19T17:20:51.559Z,6.30
2023-07-19T17:23:15.420Z,7.07
2023-07-19T17:25:40.705Z,6.20
2023-07-19T17:28:05.356Z,7.22
2023-07-19T17:30:29.215Z,6.53
2023-07-19T17:32:53.085Z,6.85
2023-07-19T17:35:17.612Z,6.57
2023-07-19T17:37:43.451Z,6.70
2023-07-19T17:40:08.596Z,6.60
2023-07-19T17:42:33.619Z,6.65
2023-07-19T17:44:57.598Z,6.65
2023-07-19T17:47:21.543Z,8.00
2023-07-19T17:49:45.330Z,6.00
2023-07-19T17:52:10.115Z,6.75
2023-07-19T17:54:36.762Z,7.03
2023-07-19T17:57:00.445Z,7.45
2023-07-19T17:59:25.687Z,7.10
2023-07-19T18:01:49.582Z,7.70
2023-07-19T18:04:13.361Z,8.52
2023-07-19T18:06:37.091Z,6.95
2023-07-19T18:09:00.858Z,7.93
2023-07-19T18:11:24.947Z,8.50
2023-07-19T18:13:49.064Z,8.43
2023-07-19T18:16:14.370Z,8.30
2023-07-19T18:18:38.376Z,9.07
2023-07-19T18:21:02.259Z,8.73
2023-07-19T18:23:26.001Z,8.02
2023-07-19T18:25:49.781Z,7.65
2023-07-19T18:28:15.704Z,7.50
2023-07-19T18:30:39.673Z,8.02
2023-07-19T18:33:05.067Z,7.97
2023-07-19T18:35:29.480Z,8.50
2023-07-19T18:37:53.355Z,7.78
2023-07-19T18:40:17.257Z,7.25
2023-07-19T18:42:41.112Z,7.78
2023-07-19T18:45:05.349Z,7.32
2023-07-19T18:47:29.126Z,7.82
2023-07-19T18:49:54.328Z,7.93
2023-07-19T18:52:18.522Z,7.63
2023-07-19T18:54:42.287Z,7.43
2023-07-19T18:57:06.747Z,7.60
2023-07-19T18:59:30.462Z,7.75
2023-07-19T19:01:54.626Z,7.78
2023-07-19T19:04:18.411Z,7.32
2023-07-19T19:06:43.704Z,8.43
2023-07-19T19:09:08.892Z,7.30
2023-07-19T19:11:32.728Z,7.95
2023-07-19T19:13:56.568Z,8.43
2023-07-19T19:16:20.449Z,7.93
2023-07-19T19:18:44.295Z,8.68
2023-07-19T19:21:08.118Z,8.55
2023-07-19T19:23:33.304Z,7.28
2023-07-19T19:25:57.206Z,7.15
2023-07-19T19:28:21.059Z,7.90
2023-07-19T19:30:45.065Z,8.63
2023-07-19T19:33:08.904Z,9.30
2023-07-19T19:35:32.856Z,7.72
2023-07-19T19:37:56.720Z,8.45
2023-07-19T19:40:22.038Z,8.40
2023-07-19T19:42:46.008Z,8.07
2023-07-19T19:45:12.065Z,9.02
2023-07-19T19:47:40.400Z,8.82
2023-07-19T19:50:04.507Z,9.18
2023-07-19T19:52:28.297Z,8.90
2023-07-19T19:54:52.052Z,8.80
2023-07-19T19:57:18.150Z,8.65
2023-07-19T19:59:44.517Z,9.20
2023-07-19T20:04:37.119Z,9.20
2023-07-19T20:07:00.935Z,8.75
2023-07-19T20:09:30.851Z,9.07
2023-07-19T20:11:54.836Z,8.95
2023-07-19T20:14:21.094Z,8.48
2023-07-19T20:16:45.107Z,9.45
2023-07-19T20:21:53.874Z,9.23
2023-07-19T20:24:19.367Z,8.70
2023-07-19T20:26:49.462Z,8.68
2023-07-19T20:41:35.021Z,9.18
2023-07-19T20:43:58.982Z,9.50
2023-07-19T20:46:22.829Z,9.95
2023-07-19T20:48:46.488Z,9.77
2023-07-19T20:51:13.371Z,10.43
2023-07-19T20:53:38.442Z,9.05
2023-07-19T20:56:02.265Z,9.20
2023-07-19T20:58:25.997Z,10.55
2023-07-19T21:00:49.995Z,9.30
2023-07-19T21:03:14.211Z,9.60
2023-07-19T21:05:38.064Z,9.25
2023-07-19T21:08:01.916Z,9.75
2023-07-19T21:10:27.845Z,10.20
2023-07-19T21:12:51.842Z,10.00
2023-07-19T21:15:16.033Z,10.30
2023-07-19T21:17:41.590Z,10.68
2023-07-19T21:20:06.400Z,10.18
2023-07-19T21:22:30.269Z,9.63
2023-07-19T21:27:22.399Z,9.65
2023-07-19T21:29:47.595Z,9.15
2023-07-19T21:32:11.604Z,9.35
2023-07-19T21:34:35.940Z,9.98
2023-07-19T21:36:59.631Z,10.88
2023-07-19T21:39:23.452Z,10.13
2023-07-19T21:41:47.221Z,10.93
2023-07-19T21:44:12.513Z,10.80
2023-07-19T21:46:36.343Z,11.38
2023-07-19T21:49:00.424Z,10.30
2023-07-19T21:51:24.684Z,10.90
2023-07-19T21:53:48.513Z,11.32
2023-07-19T21:56:12.187Z,11.45
2023-07-19T21:58:36.041Z,10.77
2023-07-19T22:01:01.189Z,11.63
2023-07-19T22:03:25.189Z,11.07
2023-07-19T22:05:49.315Z,10.48
2023-07-19T22:08:13.297Z,10.10
2023-07-19T22:10:37.548Z,12.60
2023-07-19T22:13:01.427Z,10.35
2023-07-19T22:15:27.914Z,9.93
2023-07-19T22:17:54.295Z,10.40
2023-07-19T22:20:18.307Z,9.40
2023-07-19T22:22:42.161Z,9.50
2023-07-19T22:25:06.858Z,9.93
2023-07-19T22:27:30.691Z,9.50
2023-07-19T22:29:54.413Z,10.48
2023-07-19T22:32:18.232Z,10.35
2023-07-19T22:34:43.396Z,10.10
2023-07-19T22:37:07.719Z,9.63
2023-07-19T22:39:32.106Z,9.85
2023-07-19T22:41:56.095Z,10.05
2023-07-19T22:44:19.814Z,9.80
2023-07-19T22:46:43.726Z,10.05
2023-07-19T22:49:07.658Z,10.35
2023-07-19T22:51:32.876Z,10.10
2023-07-19T22:53:56.676Z,9.02
2023-07-19T22:56:20.732Z,9.73
2023-07-19T22:58:44.709Z,10.13
2023-07-19T23:01:08.641Z,9.98
2023-07-19T23:03:34.749Z,11.05
2023-07-19T23:05:58.664Z,10.50
2023-07-19T23:08:23.666Z,11.13
2023-07-19T23:10:48.008Z,11.43
2023-07-19T23:13:11.829Z,11.23
2023-07-19T23:15:35.558Z,11.02
2023-07-19T23:18:00.155Z,11.05
2023-07-19T23:20:23.984Z,10.93
2023-07-19T23:22:47.708Z,11.05
2023-07-19T23:25:14.217Z,11.25
2023-07-19T23:27:38.117Z,11.68
2023-07-19T23:30:01.860Z,10.82
2023-07-19T23:32:25.920Z,10.27
2023-07-19T23:34:49.789Z,10.90
2023-07-19T23:37:13.384Z,11.68
2023-07-19T23:39:37.131Z,11.10
2023-07-19T23:42:02.175Z,11.13
2023-07-19T23:44:25.961Z,11.45
2023-07-19T23:46:49.827Z,10.85
2023-07-19T23:49:13.669Z,11.65
2023-07-19T23:51:39.025Z,11.98
2023-07-19T23:54:02.812Z,10.90
2023-07-19T23:56:26.726Z,11.55
2023-07-19T23:58:51.892Z,10.82
